Time;durP1;ratioP1;P1;durP2;ratioP2;P2;SDS_P1;SDS_P2;PMS_P1;PMS_P2;Temp;Humidity;BMP_temperature;BMP_pressure;BME280_temperature;BME280_humidity;BME280_pressure;Samples;Min_cycle;Max_cycle;Signal;HPM_P1;HPM_P2
2023/03/16 00:02:19;;;;;;;0.67;0.67;;;;;;;;;;5067585;28;20214;-60
2023/03/16 00:04:46;;;;;;;9.57;3.53;;;;;;;;;;5075916;28;20206;-60
2023/03/16 00:07:14;;;;;;;1.13;1.10;;;;;;;;;;5070663;28;20219;-61
2023/03/16 00:09:42;;;;;;;2.40;1.30;;;;;;;;;;5085997;28;20580;-61
2023/03/16 00:12:14;;;;;;;3.47;2.70;;;;;;;;;;5070080;28;20211;-61
2023/03/16 00:14:41;;;;;;;8.03;4.27;;;;;;;;;;5072628;28;20230;-61
2023/03/16 00:17:08;;;;;;;2.67;1.20;;;;;;;;;;5087895;28;20210;-60
2023/03/16 00:19:35;;;;;;;0.67;0.67;;;;;;;;;;5075057;28;20242;-60
2023/03/16 00:22:02;;;;;;;0.20;0.20;;;;;;;;;;5060377;28;20226;-61
2023/03/16 00:24:30;;;;;;;0.57;0.57;;;;;;;;;;5071594;28;20570;-61
2023/03/16 00:26:59;;;;;;;0.70;0.63;;;;;;;;;;5073643;28;20249;-61
2023/03/16 00:29:26;;;;;;;1.27;1.17;;;;;;;;;;5079306;28;20381;-59
2023/03/16 00:31:53;;;;;;;2.13;1.67;;;;;;;;;;5072534;28;20739;-59
2023/03/16 00:34:21;;;;;;;3.33;2.13;;;;;;;;;;5091252;28;20688;-59
2023/03/16 00:36:48;;;;;;;3.27;1.80;;;;;;;;;;5080175;28;20644;-59
2023/03/16 00:39:15;;;;;;;1.27;1.17;;;;;;;;;;5083701;28;20238;-60
2023/03/16 00:41:42;;;;;;;0.93;0.53;;;;;;;;;;5073527;28;20293;-59
2023/03/16 00:44:11;;;;;;;1.20;0.97;;;;;;;;;;5091445;28;20207;-59
2023/03/16 00:46:38;;;;;;;1.50;0.90;;;;;;;;;;5089358;28;20661;-60
2023/03/16 00:49:05;;;;;;;1.57;1.40;;;;;;;;;;5071754;28;20210;-59
2023/03/16 00:51:32;;;;;;;4.67;1.73;;;;;;;;;;5077166;28;20222;-59
2023/03/16 00:53:59;;;;;;;0.90;0.90;;;;;;;;;;5090785;28;20680;-59
2023/03/16 00:56:26;;;;;;;1.13;1.03;;;;;;;;;;5075514;28;20214;-59
2023/03/16 00:58:56;;;;;;;0.80;0.80;;;;;;;;;;5070824;28;20254;-59
2023/03/16 01:01:26;;;;;;;0.83;0.83;;;;;;;;;;5073450;28;20228;-59
2023/03/16 01:03:54;;;;;;;1.70;0.97;;;;;;;;;;5070296;28;20223;-60
2023/03/16 01:06:21;;;;;;;5.13;1.00;;;;;;;;;;5071119;28;20856;-59
2023/03/16 01:08:48;;;;;;;0.87;0.57;;;;;;;;;;5070609;28;20218;-60
2023/03/16 01:11:16;;;;;;;0.87;0.87;;;;;;;;;;5075507;28;20226;-59
2023/03/16 01:13:45;;;;;;;0.63;0.60;;;;;;;;;;5070315;28;20210;-59
2023/03/16 01:16:13;;;;;;;1.93;0.60;;;;;;;;;;5070691;28;20218;-60
2023/03/16 01:18:42;;;;;;;0.70;0.70;;;;;;;;;;5070095;28;20601;-59
2023/03/16 01:21:12;;;;;;;0.50;0.50;;;;;;;;;;5081878;28;20206;-59
2023/03/16 01:23:40;;;;;;;0.97;0.97;;;;;;;;;;5087039;28;20203;-59
2023/03/16 01:26:07;;;;;;;0.53;0.40;;;;;;;;;;5050136;28;20218;-59
2023/03/16 01:28:34;;;;;;;0.57;0.30;;;;;;;;;;5049960;28;20582;-59
2023/03/16 01:31:02;;;;;;;0.80;0.80;;;;;;;;;;5072931;28;20305;-59
2023/03/16 01:33:30;;;;;;;0.70;0.70;;;;;;;;;;5071866;28;20203;-59
2023/03/16 01:35:59;;;;;;;0.80;0.80;;;;;;;;;;5071332;28;20214;-59
2023/03/16 01:38:27;;;;;;;1.37;0.87;;;;;;;;;;5086611;28;20234;-59
2023/03/16 01:40:55;;;;;;;0.60;0.60;;;;;;;;;;5072334;28;20352;-59
2023/03/16 01:43:22;;;;;;;1.50;1.40;;;;;;;;;;5084636;28;20202;-59
2023/03/16 01:46:16;;;;;;;3.83;1.13;;;;;;;;;;5089543;28;20211;-60
2023/03/16 01:48:45;;;;;;;0.80;0.80;;;;;;;;;;5071216;28;20304;-60
2023/03/16 01:51:16;;;;;;;1.03;0.87;;;;;;;;;;5084860;28;20219;-60
2023/03/16 01:53:45;;;;;;;0.83;0.83;;;;;;;;;;5071484;28;20210;-59
2023/03/16 01:56:14;;;;;;;1.03;1.00;;;;;;;;;;5069419;28;20238;-60
2023/03/16 01:58:43;;;;;;;0.70;0.70;;;;;;;;;;5082722;28;20454;-60
2023/03/16 02:01:11;;;;;;;0.83;0.70;;;;;;;;;;5067964;28;20206;-60
2023/03/16 02:03:40;;;;;;;0.57;0.57;;;;;;;;;;5078309;28;20252;-60
2023/03/16 02:06:10;;;;;;;2.47;0.70;;;;;;;;;;5067325;28;20210;-59
2023/03/16 02:08:39;;;;;;;4.87;1.10;;;;;;;;;;5066515;28;20210;-60
2023/03/16 02:11:07;;;;;;;1.80;0.93;;;;;;;;;;5070261;28;20227;-59
2023/03/16 02:13:35;;;;;;;1.10;0.70;;;;;;;;;;5083094;28;20210;-59
2023/03/16 02:16:03;;;;;;;1.80;1.00;;;;;;;;;;5089518;28;20204;-59
2023/03/16 02:18:30;;;;;;;0.63;0.63;;;;;;;;;;5075575;28;20210;-59
2023/03/16 02:20:59;;;;;;;0.73;0.73;;;;;;;;;;5075303;28;20702;-60
2023/03/16 02:23:27;;;;;;;1.10;1.10;;;;;;;;;;5068968;28;20211;-59
2023/03/16 02:26:01;;;;;;;0.70;0.60;;;;;;;;;;5083258;28;20233;-60
2023/03/16 02:28:31;;;;;;;1.23;1.13;;;;;;;;;;5079018;28;20595;-60
2023/03/16 02:31:00;;;;;;;5.43;1.10;;;;;;;;;;5067966;28;20237;-59
2023/03/16 02:33:28;;;;;;;0.60;0.60;;;;;;;;;;5068572;28;20574;-59
2023/03/16 02:35:55;;;;;;;0.70;0.70;;;;;;;;;;5075552;28;20202;-59
2023/03/16 02:38:22;;;;;;;0.93;0.80;;;;;;;;;;5067923;28;20258;-59
2023/03/16 02:40:56;;;;;;;1.00;0.90;;;;;;;;;;5067899;28;20677;-59
2023/03/16 02:43:25;;;;;;;0.60;0.60;;;;;;;;;;5068680;28;20218;-59
2023/03/16 02:45:54;;;;;;;3.87;1.10;;;;;;;;;;5068773;28;20257;-59
2023/03/16 02:48:23;;;;;;;0.93;0.93;;;;;;;;;;5069484;28;20206;-59
2023/03/16 02:50:53;;;;;;;4.67;1.37;;;;;;;;;;5071150;28;20222;-59
2023/03/16 02:53:20;;;;;;;1.37;1.27;;;;;;;;;;5068532;28;20264;-59
2023/03/16 02:55:47;;;;;;;4.23;0.97;;;;;;;;;;5072602;28;20666;-59
2023/03/16 02:58:15;;;;;;;1.43;0.93;;;;;;;;;;5069342;28;20199;-59
2023/03/16 03:00:42;;;;;;;1.07;0.93;;;;;;;;;;5068776;28;20210;-59
2023/03/16 03:03:09;;;;;;;0.83;0.83;;;;;;;;;;5068338;28;20217;-59
2023/03/16 03:05:38;;;;;;;1.53;1.43;;;;;;;;;;5071429;28;20213;-60
2023/03/16 03:08:06;;;;;;;1.37;1.13;;;;;;;;;;5068002;28;20214;-59
2023/03/16 03:10:33;;;;;;;0.70;0.70;;;;;;;;;;5068802;28;20316;-59
2023/03/16 03:13:00;;;;;;;2.40;0.97;;;;;;;;;;5067991;28;20211;-59
2023/03/16 03:15:27;;;;;;;3.60;1.23;;;;;;;;;;5079726;28;20214;-59
2023/03/16 03:17:54;;;;;;;1.40;1.30;;;;;;;;;;5069424;28;20206;-59
2023/03/16 03:20:21;;;;;;;0.90;0.90;;;;;;;;;;5085425;28;20207;-59
2023/03/16 03:22:51;;;;;;;1.10;1.10;;;;;;;;;;5068125;28;20243;-60
2023/03/16 03:25:19;;;;;;;2.57;1.07;;;;;;;;;;5086739;28;20913;-59
2023/03/16 03:27:46;;;;;;;1.20;1.10;;;;;;;;;;5087968;28;20209;-59
2023/03/16 03:30:15;;;;;;;2.20;1.13;;;;;;;;;;5085648;28;20316;-59
2023/03/16 03:32:43;;;;;;;1.00;0.97;;;;;;;;;;5088432;28;20235;-59
2023/03/16 03:35:11;;;;;;;1.90;1.63;;;;;;;;;;5071214;28;20294;-59
2023/03/16 03:37:39;;;;;;;1.17;1.13;;;;;;;;;;5067516;28;20341;-59
2023/03/16 03:40:09;;;;;;;1.80;0.70;;;;;;;;;;5070625;28;20431;-59
2023/03/16 03:42:36;;;;;;;1.77;1.20;;;;;;;;;;5068052;28;20298;-59
2023/03/16 03:45:04;;;;;;;0.80;0.80;;;;;;;;;;5068828;28;20220;-60
2023/03/16 03:47:31;;;;;;;1.57;0.83;;;;;;;;;;5067860;28;20213;-59
2023/03/16 03:49:58;;;;;;;3.90;1.57;;;;;;;;;;5071450;28;20268;-59
2023/03/16 03:52:25;;;;;;;1.53;0.80;;;;;;;;;;5087501;28;20635;-59
2023/03/16 03:54:52;;;;;;;1.90;0.83;;;;;;;;;;5079434;28;20213;-59
2023/03/16 03:57:21;;;;;;;1.93;0.93;;;;;;;;;;5071658;28;20233;-59
2023/03/16 03:59:48;;;;;;;1.87;1.77;;;;;;;;;;5082899;28;20206;-59
2023/03/16 04:02:15;;;;;;;4.77;1.50;;;;;;;;;;5091482;28;20217;-59
2023/03/16 04:04:42;;;;;;;2.50;1.60;;;;;;;;;;5082062;28;20199;-59
2023/03/16 04:07:10;;;;;;;1.77;1.67;;;;;;;;;;5071079;28;20203;-59
2023/03/16 04:09:37;;;;;;;1.57;1.47;;;;;;;;;;5074177;28;20203;-59
2023/03/16 04:12:05;;;;;;;3.23;1.70;;;;;;;;;;5073803;28;20235;-59
2023/03/16 04:14:33;;;;;;;2.50;1.70;;;;;;;;;;5091208;28;20703;-59
2023/03/16 04:17:01;;;;;;;3.60;2.27;;;;;;;;;;5088641;28;20217;-59
2023/03/16 04:19:28;;;;;;;0.93;0.93;;;;;;;;;;5078450;28;20202;-59
2023/03/16 04:21:55;;;;;;;1.17;1.13;;;;;;;;;;5090361;28;20226;-59
2023/03/16 04:24:22;;;;;;;1.70;1.60;;;;;;;;;;5074744;28;20203;-59
2023/03/16 04:26:49;;;;;;;3.37;2.10;;;;;;;;;;5070946;28;20309;-59
2023/03/16 04:29:17;;;;;;;1.50;1.37;;;;;;;;;;5074535;28;20202;-60
2023/03/16 04:31:46;;;;;;;2.10;1.90;;;;;;;;;;5072190;28;20257;-60
2023/03/16 04:34:13;;;;;;;2.10;1.03;;;;;;;;;;5072027;28;20206;-60
2023/03/16 04:36:41;;;;;;;1.47;1.07;;;;;;;;;;5074735;28;20218;-59
2023/03/16 04:39:09;;;;;;;2.37;1.33;;;;;;;;;;5074505;28;20939;-60
2023/03/16 04:41:36;;;;;;;2.67;2.20;;;;;;;;;;5074409;28;20199;-59
2023/03/16 04:44:03;;;;;;;2.77;2.53;;;;;;;;;;5070406;28;20746;-60
2023/03/16 04:46:31;;;;;;;2.10;1.97;;;;;;;;;;5074235;28;20300;-60
2023/03/16 04:48:59;;;;;;;2.57;2.37;;;;;;;;;;5086006;28;20645;-59
2023/03/16 04:51:27;;;;;;;1.23;1.13;;;;;;;;;;5084097;28;20234;-59
2023/03/16 04:53:54;;;;;;;2.70;2.40;;;;;;;;;;5083558;28;20206;-59
2023/03/16 04:56:22;;;;;;;3.97;1.80;;;;;;;;;;5086014;28;20206;-59
2023/03/16 04:58:50;;;;;;;2.77;1.67;;;;;;;;;;5079982;28;20206;-60
2023/03/16 05:01:18;;;;;;;1.23;0.50;;;;;;;;;;5054852;28;20676;-60
2023/03/16 05:03:45;;;;;;;1.47;1.20;;;;;;;;;;5074781;28;20293;-60
2023/03/16 05:06:13;;;;;;;1.43;1.33;;;;;;;;;;5078166;28;20214;-60
2023/03/16 05:08:40;;;;;;;2.47;1.27;;;;;;;;;;5073111;28;20214;-60
2023/03/16 05:11:07;;;;;;;1.30;1.30;;;;;;;;;;5070677;28;20301;-60
2023/03/16 05:13:34;;;;;;;1.47;1.30;;;;;;;;;;5071840;28;20211;-59
2023/03/16 05:16:01;;;;;;;1.53;1.37;;;;;;;;;;5088149;28;20213;-60
2023/03/16 05:18:29;;;;;;;2.03;1.43;;;;;;;;;;5088593;28;20214;-61
2023/03/16 05:20:56;;;;;;;1.17;0.90;;;;;;;;;;5069252;28;20207;-62
2023/03/16 05:23:25;;;;;;;1.37;1.27;;;;;;;;;;5069722;28;20211;-61
2023/03/16 05:25:52;;;;;;;1.40;1.17;;;;;;;;;;5088490;28;20207;-60
2023/03/16 05:28:19;;;;;;;1.33;1.23;;;;;;;;;;5084658;28;20213;-61
2023/03/16 05:30:46;;;;;;;2.87;1.60;;;;;;;;;;5076007;28;20202;-61
2023/03/16 05:33:13;;;;;;;3.37;1.80;;;;;;;;;;5068679;28;20229;-61
2023/03/16 05:35:41;;;;;;;0.97;0.97;;;;;;;;;;5069464;28;20241;-60
2023/03/16 05:38:09;;;;;;;1.43;1.20;;;;;;;;;;5069214;28;20239;-60
2023/03/16 05:40:37;;;;;;;1.20;1.10;;;;;;;;;;5069475;28;20202;-60
2023/03/16 05:43:04;;;;;;;2.47;0.93;;;;;;;;;;5069604;28;20402;-61
2023/03/16 05:45:31;;;;;;;3.17;1.80;;;;;;;;;;5069325;28;20206;-60
2023/03/16 05:47:58;;;;;;;1.17;1.17;;;;;;;;;;5074964;28;20245;-60
2023/03/16 05:50:27;;;;;;;1.40;1.20;;;;;;;;;;5069596;28;20213;-60
2023/03/16 05:52:54;;;;;;;1.23;1.17;;;;;;;;;;5068764;28;20244;-60
2023/03/16 05:55:21;;;;;;;1.67;1.27;;;;;;;;;;5067731;28;20218;-60
2023/03/16 05:57:49;;;;;;;1.10;1.00;;;;;;;;;;5070381;28;20207;-61
2023/03/16 06:00:17;;;;;;;2.90;2.17;;;;;;;;;;5078890;28;20267;-60
2023/03/16 06:02:46;;;;;;;2.77;2.17;;;;;;;;;;5084357;28;20281;-60
2023/03/16 06:05:13;;;;;;;3.83;2.77;;;;;;;;;;5077148;28;20305;-60
2023/03/16 06:07:40;;;;;;;1.67;1.57;;;;;;;;;;5068908;28;20297;-60
2023/03/16 06:10:08;;;;;;;4.50;2.07;;;;;;;;;;5078009;28;20225;-60
2023/03/16 06:12:35;;;;;;;2.43;2.23;;;;;;;;;;5068815;28;20544;-60
2023/03/16 06:15:06;;;;;;;11.87;5.67;;;;;;;;;;5068869;28;20214;-61
2023/03/16 06:17:33;;;;;;;2.60;1.37;;;;;;;;;;5068392;28;20268;-60
2023/03/16 06:20:04;;;;;;;1.40;1.23;;;;;;;;;;5077594;28;20203;-61
2023/03/16 06:22:31;;;;;;;2.90;2.20;;;;;;;;;;5068804;28;20219;-62
2023/03/16 06:24:58;;;;;;;2.07;1.43;;;;;;;;;;5072399;28;20225;-61
2023/03/16 06:27:25;;;;;;;2.70;1.80;;;;;;;;;;5070614;28;20241;-60
2023/03/16 06:29:52;;;;;;;1.97;1.47;;;;;;;;;;5085795;28;20240;-60
2023/03/16 06:32:21;;;;;;;1.63;1.10;;;;;;;;;;5068464;28;20255;-61
2023/03/16 06:34:48;;;;;;;2.10;1.60;;;;;;;;;;5076262;28;20224;-61
2023/03/16 06:37:15;;;;;;;3.57;3.27;;;;;;;;;;5068522;28;20634;-60
2023/03/16 06:39:43;;;;;;;8.90;2.97;;;;;;;;;;5072629;28;20240;-60
2023/03/16 06:42:10;;;;;;;1.90;1.67;;;;;;;;;;5075790;28;20290;-59
2023/03/16 06:44:37;;;;;;;2.90;2.20;;;;;;;;;;5080862;28;20212;-60
2023/03/16 06:47:05;;;;;;;2.20;1.67;;;;;;;;;;5068048;28;20213;-60
2023/03/16 06:49:33;;;;;;;8.13;2.30;;;;;;;;;;5077361;28;20699;-60
2023/03/16 06:52:02;;;;;;;1.67;1.60;;;;;;;;;;5068409;28;20230;-60
2023/03/16 06:54:31;;;;;;;4.13;1.37;;;;;;;;;;5068112;28;20709;-60
2023/03/16 06:56:58;;;;;;;1.00;0.60;;;;;;;;;;5067978;28;20221;-60
2023/03/16 06:59:25;;;;;;;2.17;1.93;;;;;;;;;;5071097;28;20210;-60
2023/03/16 07:01:52;;;;;;;1.93;1.47;;;;;;;;;;5074578;28;20247;-60
2023/03/16 07:04:19;;;;;;;1.60;1.50;;;;;;;;;;5082147;28;20618;-60
2023/03/16 07:06:47;;;;;;;3.80;2.50;;;;;;;;;;5067304;28;20229;-60
2023/03/16 07:09:14;;;;;;;1.97;1.40;;;;;;;;;;5073933;28;20668;-60
2023/03/16 07:11:41;;;;;;;10.00;2.70;;;;;;;;;;5073448;28;20680;-60
2023/03/16 07:14:08;;;;;;;3.53;3.00;;;;;;;;;;5079036;28;20803;-60
2023/03/16 07:16:35;;;;;;;5.17;3.27;;;;;;;;;;5067889;28;20214;-60
2023/03/16 07:19:02;;;;;;;1.63;1.53;;;;;;;;;;5067625;28;20673;-61
2023/03/16 07:21:31;;;;;;;3.63;2.63;;;;;;;;;;5067628;28;20876;-61
2023/03/16 07:24:00;;;;;;;2.00;1.83;;;;;;;;;;5067669;28;20217;-61
2023/03/16 07:26:27;;;;;;;1.80;1.67;;;;;;;;;;5067508;28;20214;-61
2023/03/16 07:28:54;;;;;;;2.80;1.23;;;;;;;;;;5070060;28;20214;-61
2023/03/16 07:31:21;;;;;;;0.80;0.80;;;;;;;;;;5071767;28;20211;-60
2023/03/16 07:33:48;;;;;;;1.90;1.80;;;;;;;;;;5071584;28;20234;-61
2023/03/16 07:36:15;;;;;;;1.20;1.20;;;;;;;;;;5071736;28;20202;-61
2023/03/16 07:38:42;;;;;;;5.50;2.53;;;;;;;;;;5071349;28;20954;-61
2023/03/16 07:41:10;;;;;;;2.77;2.27;;;;;;;;;;5060152;28;20340;-61
2023/03/16 07:43:38;;;;;;;1.67;1.57;;;;;;;;;;5071001;28;20202;-61
2023/03/16 07:46:05;;;;;;;5.23;1.83;;;;;;;;;;5071469;28;20596;-61
2023/03/16 07:48:33;;;;;;;0.60;0.60;;;;;;;;;;5071158;28;20203;-61
2023/03/16 07:51:02;;;;;;;4.13;2.40;;;;;;;;;;5071540;28;20211;-61
2023/03/16 07:53:29;;;;;;;4.30;2.40;;;;;;;;;;5071416;28;20238;-60
2023/03/16 07:55:58;;;;;;;1.27;1.20;;;;;;;;;;5071025;28;20577;-60
2023/03/16 07:58:27;;;;;;;2.83;1.07;;;;;;;;;;5071338;28;20207;-61
2023/03/16 08:00:57;;;;;;;2.07;1.53;;;;;;;;;;5071885;28;20818;-61
2023/03/16 08:03:24;;;;;;;1.53;1.43;;;;;;;;;;5082551;28;20195;-62
2023/03/16 08:05:51;;;;;;;3.13;2.47;;;;;;;;;;5070940;28;20288;-68
2023/03/16 08:08:19;;;;;;;0.90;0.90;;;;;;;;;;5071200;28;20210;-64
2023/03/16 08:10:47;;;;;;;0.87;0.87;;;;;;;;;;5071264;28;20207;-62
2023/03/16 08:13:14;;;;;;;1.57;1.47;;;;;;;;;;5070898;28;20230;-62
2023/03/16 08:15:46;;;;;;;3.20;2.37;;;;;;;;;;5071020;28;20207;-61
2023/03/16 08:18:13;;;;;;;0.43;0.43;;;;;;;;;;5071340;28;20735;-62
2023/03/16 08:20:40;;;;;;;2.70;2.53;;;;;;;;;;5070807;28;20219;-62
2023/03/16 08:23:07;;;;;;;2.70;1.33;;;;;;;;;;5070690;28;20319;-62
2023/03/16 08:25:34;;;;;;;2.03;1.93;;;;;;;;;;5068518;28;20211;-61
2023/03/16 08:28:01;;;;;;;3.53;2.73;;;;;;;;;;5070781;28;20210;-61
2023/03/16 08:30:29;;;;;;;2.40;1.90;;;;;;;;;;5070516;28;20221;-61
2023/03/16 08:33:00;;;;;;;5.53;1.63;;;;;;;;;;5070876;28;20298;-61
2023/03/16 08:35:28;;;;;;;4.80;2.93;;;;;;;;;;5070890;28;20216;-60
2023/03/16 08:37:55;;;;;;;2.43;2.10;;;;;;;;;;5086757;28;20653;-59
2023/03/16 08:40:24;;;;;;;2.53;2.27;;;;;;;;;;5085431;28;20203;-59
2023/03/16 08:42:51;;;;;;;1.63;1.53;;;;;;;;;;5079055;28;20272;-60
2023/03/16 08:45:18;;;;;;;2.43;1.73;;;;;;;;;;5088639;28;20202;-60
2023/03/16 08:47:45;;;;;;;2.80;1.87;;;;;;;;;;5087356;28;20230;-60
2023/03/16 08:50:14;;;;;;;2.50;2.13;;;;;;;;;;5089907;28;20693;-60
2023/03/16 08:52:41;;;;;;;4.43;2.23;;;;;;;;;;5070192;28;20219;-59
2023/03/16 08:55:09;;;;;;;1.83;1.37;;;;;;;;;;5068214;28;20207;-59
2023/03/16 08:57:38;;;;;;;2.70;2.50;;;;;;;;;;5069245;28;20221;-59
2023/03/16 09:00:11;;;;;;;2.37;2.13;;;;;;;;;;5069921;28;20210;-60
2023/03/16 09:02:39;;;;;;;2.10;1.90;;;;;;;;;;5070053;28;20206;-59
2023/03/16 09:05:07;;;;;;;1.67;1.63;;;;;;;;;;5069536;28;20211;-60
2023/03/16 09:07:35;;;;;;;3.60;1.57;;;;;;;;;;5069702;28;20218;-59
2023/03/16 09:10:04;;;;;;;3.23;1.67;;;;;;;;;;5069877;28;20619;-60
2023/03/16 09:12:31;;;;;;;1.63;1.50;;;;;;;;;;5069345;28;20223;-60
2023/03/16 09:14:58;;;;;;;3.27;1.67;;;;;;;;;;5069541;28;20210;-60
2023/03/16 09:17:25;;;;;;;2.47;2.27;;;;;;;;;;5069652;28;20318;-60
2023/03/16 09:19:53;;;;;;;1.80;1.70;;;;;;;;;;5069296;28;20215;-60
2023/03/16 09:22:20;;;;;;;3.30;1.87;;;;;;;;;;5069202;28;20223;-61
2023/03/16 09:24:48;;;;;;;2.27;2.07;;;;;;;;;;5069506;28;20214;-60
2023/03/16 09:27:16;;;;;;;2.00;1.73;;;;;;;;;;5068970;28;20218;-60
2023/03/16 09:29:44;;;;;;;1.90;1.80;;;;;;;;;;5069098;28;20215;-60
2023/03/16 09:32:11;;;;;;;2.47;2.17;;;;;;;;;;5069159;28;20215;-60
2023/03/16 09:34:38;;;;;;;1.70;1.60;;;;;;;;;;5068881;28;20580;-60
2023/03/16 09:37:05;;;;;;;3.13;1.37;;;;;;;;;;5068810;28;20665;-60
2023/03/16 09:39:32;;;;;;;1.67;1.57;;;;;;;;;;5069140;28;20250;-60
2023/03/16 09:42:05;;;;;;;1.83;1.73;;;;;;;;;;5068534;28;20272;-60
2023/03/16 09:44:39;;;;;;;1.70;1.63;;;;;;;;;;5068564;28;20260;-60
2023/03/16 09:47:07;;;;;;;1.87;1.77;;;;;;;;;;5068495;28;20304;-60
2023/03/16 09:49:38;;;;;;;3.73;1.80;;;;;;;;;;5068880;28;20305;-61
2023/03/16 09:52:10;;;;;;;2.07;1.97;;;;;;;;;;5068035;28;20617;-61
2023/03/16 09:54:42;;;;;;;2.00;1.40;;;;;;;;;;5068651;28;20720;-61
2023/03/16 09:57:15;;;;;;;1.70;1.60;;;;;;;;;;5068277;28;20241;-62
2023/03/16 09:59:42;;;;;;;1.90;1.80;;;;;;;;;;5065360;28;20676;-60
2023/03/16 10:02:20;;;;;;;4.90;1.93;;;;;;;;;;5066004;28;20269;-60
2023/03/16 10:04:51;;;;;;;1.67;1.67;;;;;;;;;;5067198;28;20321;-60
2023/03/16 10:07:24;;;;;;;1.77;1.67;;;;;;;;;;5068152;28;20214;-60
2023/03/16 10:09:55;;;;;;;2.97;1.60;;;;;;;;;;5068305;28;20215;-60
2023/03/16 10:12:26;;;;;;;2.03;1.90;;;;;;;;;;5066216;28;20217;-60
2023/03/16 10:14:57;;;;;;;2.30;2.03;;;;;;;;;;5066080;28;20211;-60
2023/03/16 10:17:27;;;;;;;3.70;1.93;;;;;;;;;;5068044;28;20260;-60
2023/03/16 10:19:59;;;;;;;1.87;1.77;;;;;;;;;;5068146;28;20268;-61
2023/03/16 10:22:27;;;;;;;2.03;1.93;;;;;;;;;;5068270;28;20325;-61
2023/03/16 10:25:03;;;;;;;1.67;1.57;;;;;;;;;;5067969;28;20213;-61
2023/03/16 10:27:32;;;;;;;2.40;2.27;;;;;;;;;;5067684;28;20696;-61
2023/03/16 10:30:00;;;;;;;1.77;1.50;;;;;;;;;;5067787;28;20219;-61
2023/03/16 10:32:30;;;;;;;1.63;1.53;;;;;;;;;;5067949;28;20234;-61
2023/03/16 10:35:01;;;;;;;3.83;1.77;;;;;;;;;;5068214;28;20206;-60
2023/03/16 10:37:31;;;;;;;2.00;1.57;;;;;;;;;;5067780;28;20570;-61
2023/03/16 10:39:59;;;;;;;1.83;1.30;;;;;;;;;;5067406;28;20717;-61
2023/03/16 10:42:27;;;;;;;1.47;1.47;;;;;;;;;;5067874;28;20272;-61
2023/03/16 10:44:58;;;;;;;2.37;2.20;;;;;;;;;;5072041;28;20210;-61
2023/03/16 10:47:29;;;;;;;3.70;2.23;;;;;;;;;;5086644;28;20293;-60
2023/03/16 10:49:56;;;;;;;2.33;2.13;;;;;;;;;;5067607;28;20253;-61
2023/03/16 10:52:25;;;;;;;2.23;2.00;;;;;;;;;;5067791;28;20657;-61
2023/03/16 10:54:54;;;;;;;0.87;0.87;;;;;;;;;;5069606;28;20231;-60
2023/03/16 10:57:24;;;;;;;1.67;1.57;;;;;;;;;;5066881;28;20273;-61
2023/03/16 10:59:52;;;;;;;1.17;1.17;;;;;;;;;;5067506;28;20210;-61
2023/03/16 11:02:22;;;;;;;2.70;1.90;;;;;;;;;;5067765;28;20264;-60
2023/03/16 11:04:49;;;;;;;1.93;1.83;;;;;;;;;;5064854;28;20282;-60
2023/03/16 11:07:17;;;;;;;1.80;1.70;;;;;;;;;;5067037;28;20226;-59
2023/03/16 11:09:46;;;;;;;2.40;1.83;;;;;;;;;;5067239;28;20413;-62
2023/03/16 11:12:14;;;;;;;2.43;2.20;;;;;;;;;;5067129;28;20227;-60
2023/03/16 11:14:44;;;;;;;1.30;1.20;;;;;;;;;;5067548;28;20257;-62
2023/03/16 11:17:13;;;;;;;1.63;1.53;;;;;;;;;;5067185;28;20297;-59
2023/03/16 11:19:46;;;;;;;1.20;1.20;;;;;;;;;;5067485;28;20233;-60
2023/03/16 11:22:14;;;;;;;0.50;0.50;;;;;;;;;;5067579;28;20235;-60
2023/03/16 11:24:46;;;;;;;2.83;1.70;;;;;;;;;;5067611;28;20288;-60
2023/03/16 11:27:18;;;;;;;1.43;1.43;;;;;;;;;;5066966;28;20207;-60
2023/03/16 11:29:51;;;;;;;2.00;1.90;;;;;;;;;;5067431;28;20211;-60
2023/03/16 11:32:20;;;;;;;1.50;1.40;;;;;;;;;;5067327;28;20215;-60
2023/03/16 11:34:49;;;;;;;3.60;1.60;;;;;;;;;;5066887;28;20219;-61
2023/03/16 11:37:20;;;;;;;2.37;1.47;;;;;;;;;;5067189;28;20237;-60
2023/03/16 11:39:52;;;;;;;2.67;1.53;;;;;;;;;;5067024;28;20732;-60
2023/03/16 11:42:29;;;;;;;1.70;1.60;;;;;;;;;;5067025;28;20214;-60
2023/03/16 11:45:00;;;;;;;1.50;1.50;;;;;;;;;;5067195;28;20207;-60
2023/03/16 11:47:46;;;;;;;1.67;1.00;;;;;;;;;;5067232;28;20238;-60
2023/03/16 11:50:17;;;;;;;3.40;2.00;;;;;;;;;;5067253;28;20261;-60
2023/03/16 11:52:48;;;;;;;1.43;1.40;;;;;;;;;;5067229;28;20214;-60
2023/03/16 11:55:21;;;;;;;1.87;1.70;;;;;;;;;;5066979;28;20322;-64
2023/03/16 11:57:54;;;;;;;1.23;1.23;;;;;;;;;;5066932;28;20669;-60
2023/03/16 12:00:26;;;;;;;1.37;1.30;;;;;;;;;;5067061;28;20219;-60
2023/03/16 12:03:01;;;;;;;2.93;0.90;;;;;;;;;;5066743;28;20234;-63
2023/03/16 12:05:41;;;;;;;1.70;1.50;;;;;;;;;;5083973;28;20448;-60
2023/03/16 12:08:16;;;;;;;0.67;0.67;;;;;;;;;;5072642;28;20206;-60
2023/03/16 12:10:49;;;;;;;1.20;1.20;;;;;;;;;;5081778;28;20229;-60
2023/03/16 12:13:29;;;;;;;1.00;1.00;;;;;;;;;;5069328;28;20297;-60
2023/03/16 12:15:58;;;;;;;1.20;1.10;;;;;;;;;;5058130;28;20210;-60
2023/03/16 12:18:28;;;;;;;1.10;1.10;;;;;;;;;;5088626;28;20212;-60
2023/03/16 12:20:59;;;;;;;1.33;1.30;;;;;;;;;;5071792;28;20207;-59
2023/03/16 12:23:29;;;;;;;1.10;1.10;;;;;;;;;;5071550;28;20206;-62
2023/03/16 12:25:58;;;;;;;1.10;1.10;;;;;;;;;;5073173;28;20207;-60
2023/03/16 12:28:26;;;;;;;1.10;1.10;;;;;;;;;;5071160;28;20203;-60
2023/03/16 12:30:58;;;;;;;2.07;0.70;;;;;;;;;;5090759;28;20273;-62
2023/03/16 12:33:33;;;;;;;1.90;1.37;;;;;;;;;;5089134;28;20325;-61
2023/03/16 12:36:03;;;;;;;2.37;1.10;;;;;;;;;;5090665;28;20237;-62
2023/03/16 12:38:36;;;;;;;0.70;0.70;;;;;;;;;;5079969;28;20227;-61
2023/03/16 12:41:15;;;;;;;0.80;0.80;;;;;;;;;;5070600;28;20391;-61
2023/03/16 12:43:46;;;;;;;3.80;1.27;;;;;;;;;;5084996;28;20935;-62
2023/03/16 12:46:14;;;;;;;1.13;1.03;;;;;;;;;;5071424;28;20207;-61
2023/03/16 12:48:44;;;;;;;1.60;1.10;;;;;;;;;;5071440;28;20209;-61
2023/03/16 12:51:13;;;;;;;1.50;1.10;;;;;;;;;;5069970;28;20203;-61
2023/03/16 12:53:44;;;;;;;1.10;1.10;;;;;;;;;;5071958;28;20711;-61
2023/03/16 12:56:12;;;;;;;0.97;0.97;;;;;;;;;;5070939;28;20266;-62
2023/03/16 12:58:47;;;;;;;1.30;1.20;;;;;;;;;;5059090;28;20215;-62
2023/03/16 13:01:15;;;;;;;1.00;1.00;;;;;;;;;;5073806;28;20202;-62
2023/03/16 13:03:42;;;;;;;0.50;0.50;;;;;;;;;;5072655;28;20259;-62
2023/03/16 13:06:18;;;;;;;0.50;0.50;;;;;;;;;;5079985;28;20553;-62
2023/03/16 13:08:49;;;;;;;0.57;0.57;;;;;;;;;;5069560;28;20219;-62
2023/03/16 13:11:16;;;;;;;0.52;0.52;;;;;;;;;;5090246;28;20210;-62
2023/03/16 13:13:51;;;;;;;0.53;0.53;;;;;;;;;;5071223;28;20245;-62
2023/03/16 13:16:27;;;;;;;0.60;0.60;;;;;;;;;;5070165;28;20211;-62
2023/03/16 13:18:54;;;;;;;0.45;0.45;;;;;;;;;;5077904;28;20202;-62
2023/03/16 13:21:34;;;;;;;1.87;0.47;;;;;;;;;;5088473;28;20281;-62
2023/03/16 13:24:12;;;;;;;0.63;0.63;;;;;;;;;;5077750;28;20206;-62
2023/03/16 13:26:42;;;;;;;0.77;0.77;;;;;;;;;;5077784;28;20299;-62
2023/03/16 13:29:20;;;;;;;0.53;0.53;;;;;;;;;;5075660;28;20747;-62
2023/03/16 13:31:47;;;;;;;0.30;0.30;;;;;;;;;;5070512;28;20201;-62
2023/03/16 13:34:16;;;;;;;0.53;0.53;;;;;;;;;;5069768;28;20284;-62
2023/03/16 13:36:45;;;;;;;0.70;0.70;;;;;;;;;;5071180;28;20217;-63
2023/03/16 13:39:15;;;;;;;1.55;0.70;;;;;;;;;;5075812;28;20269;-62
2023/03/16 13:41:42;;;;;;;0.60;0.60;;;;;;;;;;5087490;28;20849;-62
2023/03/16 13:44:13;;;;;;;0.65;0.65;;;;;;;;;;5069466;28;20210;-62
2023/03/16 13:46:40;;;;;;;0.80;0.80;;;;;;;;;;5087451;28;20704;-60
2023/03/16 13:49:07;;;;;;;0.40;0.40;;;;;;;;;;5070450;28;20207;-61
2023/03/16 13:51:37;;;;;;;0.40;0.40;;;;;;;;;;5070449;28;20227;-61
2023/03/16 13:54:17;;;;;;;0.90;0.77;;;;;;;;;;5069836;28;21030;-61
2023/03/16 13:56:44;;;;;;;0.50;0.50;;;;;;;;;;5068724;28;20775;-61
2023/03/16 13:59:11;;;;;;;0.80;0.80;;;;;;;;;;5075335;28;20202;-63
2023/03/16 14:01:38;;;;;;;0.60;0.60;;;;;;;;;;5088736;28;20225;-61
2023/03/16 14:04:12;;;;;;;0.30;0.30;;;;;;;;;;5070242;28;20203;-62
2023/03/16 14:06:40;;;;;;;0.70;0.70;;;;;;;;;;5087309;28;20794;-61
2023/03/16 14:09:08;;;;;;;0.50;0.50;;;;;;;;;;5074858;28;20253;-60
2023/03/16 14:11:37;;;;;;;0.73;0.70;;;;;;;;;;5071313;28;20230;-61
2023/03/16 14:14:14;;;;;;;0.40;0.40;;;;;;;;;;5068504;28;20257;-61
2023/03/16 14:16:41;;;;;;;2.00;0.40;;;;;;;;;;5069791;28;20218;-61
2023/03/16 14:19:15;;;;;;;0.63;0.63;;;;;;;;;;5069285;28;20301;-62
2023/03/16 14:21:44;;;;;;;0.77;0.70;;;;;;;;;;5071167;28;20936;-61
2023/03/16 14:24:19;;;;;;;0.47;0.47;;;;;;;;;;5066636;28;20317;-61
2023/03/16 14:26:48;;;;;;;0.40;0.40;;;;;;;;;;5058268;28;20256;-62
2023/03/16 14:29:18;;;;;;;5.73;0.70;;;;;;;;;;5069428;28;20931;-62
2023/03/16 14:31:46;;;;;;;0.40;0.33;;;;;;;;;;5068200;28;20211;-61
2023/03/16 14:34:27;;;;;;;0.70;0.70;;;;;;;;;;5069157;28;20219;-62
2023/03/16 14:37:05;;;;;;;2.45;1.98;;;;;;;;;;5067667;28;20222;-61
2023/03/16 14:39:32;;;;;;;1.20;1.17;;;;;;;;;;5071910;28;20238;-71
2023/03/16 14:42:02;;;;;;;0.50;0.50;;;;;;;;;;5068232;28;20211;-69
2023/03/16 14:44:31;;;;;;;0.87;0.47;;;;;;;;;;5068125;28;20203;-62
2023/03/16 14:46:59;;;;;;;0.47;0.47;;;;;;;;;;5066045;28;20289;-62
2023/03/16 14:49:27;;;;;;;0.50;0.50;;;;;;;;;;5067692;28;20684;-63
2023/03/16 14:51:56;;;;;;;0.35;0.35;;;;;;;;;;5068039;28;20302;-62
2023/03/16 14:54:23;;;;;;;0.73;0.47;;;;;;;;;;5067657;28;20313;-62